Time;durP1;ratioP1;P1;durP2;ratioP2;P2;SDS_P1;SDS_P2;PMS_P1;PMS_P2;Temp;Humidity;BMP_temperature;BMP_pressure;BME280_temperature;BME280_humidity;BME280_pressure;Samples;Min_cycle;Max_cycle;Signal;HPM_P1;HPM_P2
2022/01/29 00:02:24;;;;;;;22.13;10.37;;;5.60;47.70;;;;;;5056904;28;20212;-88
2022/01/29 00:04:50;;;;;;;19.67;9.53;;;5.60;47.10;;;;;;5074843;28;20700;-86
2022/01/29 00:07:16;;;;;;;16.07;8.30;;;5.60;42.20;;;;;;5074946;28;20165;-89
2022/01/29 00:09:43;;;;;;;18.77;9.50;;;5.60;55.40;;;;;;5075489;28;20170;-94
2022/01/29 00:12:10;;;;;;;17.67;8.37;;;5.70;42.70;;;;;;5075751;28;20176;-93
2022/01/29 00:14:35;;;;;;;20.50;9.77;;;5.60;44.20;;;;;;5074358;28;20506;-87
2022/01/29 00:17:01;;;;;;;20.73;9.37;;;5.60;60.20;;;;;;5094908;22;22417;-87
2022/01/29 00:19:27;;;;;;;16.00;9.73;;;5.70;72.00;;;;;;5032140;28;20215;-84
2022/01/29 00:21:53;;;;;;;17.47;10.17;;;5.70;62.70;;;;;;5052694;28;20189;-84
2022/01/29 00:24:19;;;;;;;18.97;8.73;;;5.60;76.20;;;;;;5035920;28;20436;-88
2022/01/29 00:26:44;;;;;;;25.03;11.27;;;5.60;73.50;;;;;;5053661;28;20179;-87
2022/01/29 00:29:17;;;;;;;18.57;9.83;;;5.60;77.70;;;;;;5053453;28;20169;-84
2022/01/29 00:31:43;;;;;;;21.10;11.07;;;5.60;96.10;;;;;;5053454;28;20170;-85
2022/01/29 00:34:09;;;;;;;18.27;10.37;;;5.60;98.40;;;;;;5053559;28;20535;-85
2022/01/29 00:36:34;;;;;;;22.23;11.70;;;5.60;99.90;;;;;;5052973;28;20177;-85
2022/01/29 00:39:00;;;;;;;25.73;12.40;;;5.70;99.90;;;;;;5053341;28;20177;-86
2022/01/29 00:41:25;;;;;;;21.13;12.93;;;5.70;99.90;;;;;;5053404;28;20201;-86
2022/01/29 00:43:51;;;;;;;26.93;12.77;;;5.70;99.90;;;;;;5053263;28;20269;-87
2022/01/29 00:46:17;;;;;;;24.50;12.13;;;5.70;99.90;;;;;;5053501;28;20201;-88
2022/01/29 00:48:43;;;;;;;23.83;14.20;;;5.70;99.90;;;;;;5035666;28;20427;-84
2022/01/29 00:51:08;;;;;;;26.50;13.77;;;5.70;99.90;;;;;;5035489;28;20626;-86
2022/01/29 00:53:34;;;;;;;25.53;14.20;;;5.70;99.90;;;;;;5053405;28;20181;-89
2022/01/29 00:56:05;;;;;;;27.03;15.70;;;5.70;99.90;;;;;;5053308;28;20513;-88
2022/01/29 00:58:30;;;;;;;31.47;17.13;;;5.80;99.90;;;;;;5053088;28;20211;-88
2022/01/29 01:00:56;;;;;;;30.43;15.17;;;5.70;99.90;;;;;;5053359;28;20423;-89
2022/01/29 01:03:21;;;;;;;28.27;15.80;;;5.70;99.90;;;;;;5035819;28;20221;-89
2022/01/29 01:05:47;;;;;;;26.43;15.47;;;5.70;99.90;;;;;;5047190;28;20652;-86
2022/01/29 01:08:12;;;;;;;25.53;16.90;;;5.70;99.90;;;;;;5045207;28;20191;-85
2022/01/29 01:10:38;;;;;;;35.40;19.33;;;5.80;99.90;;;;;;5045915;28;20208;-88
2022/01/29 01:13:04;;;;;;;30.23;17.90;;;5.80;99.90;;;;;;5044563;28;20186;-84
2022/01/29 01:15:29;;;;;;;25.27;16.07;;;5.80;99.90;;;;;;5045430;28;20705;-85
2022/01/29 01:17:55;;;;;;;36.77;19.87;;;5.80;99.90;;;;;;5044811;28;20250;-87
2022/01/29 01:20:20;;;;;;;33.33;18.67;;;5.80;99.90;;;;;;5044571;28;20174;-86
2022/01/29 01:22:46;;;;;;;28.10;17.10;;;5.80;99.90;;;;;;5052229;28;20797;-84
2022/01/29 01:25:11;;;;;;;28.57;17.23;;;5.80;99.90;;;;;;5052772;28;20617;-83
2022/01/29 01:27:37;;;;;;;35.73;20.37;;;5.70;99.90;;;;;;5052678;28;20253;-84
2022/01/29 01:30:03;;;;;;;36.13;21.60;;;5.80;99.90;;;;;;5052514;28;20215;-87
2022/01/29 01:32:29;;;;;;;32.20;21.20;;;5.70;99.90;;;;;;5052688;28;20634;-86
2022/01/29 01:35:05;;;;;;;37.47;21.80;;;5.70;99.90;;;;;;5034763;28;20456;-86
2022/01/29 01:37:40;;;;;;;38.47;21.47;;;5.70;99.90;;;;;;5052302;28;20169;-86
2022/01/29 01:40:08;;;;;;;37.23;20.80;;;5.70;99.90;;;;;;5052591;28;20442;-85
2022/01/29 01:42:33;;;;;;;43.33;20.40;;;5.70;99.90;;;;;;5052403;28;20472;-85
2022/01/29 01:44:59;;;;;;;47.70;24.50;;;5.70;99.90;;;;;;5034623;28;20404;-86
2022/01/29 01:47:24;;;;;;;50.93;23.90;;;5.60;99.90;;;;;;5052434;28;20231;-86
2022/01/29 01:49:50;;;;;;;42.40;24.97;;;5.70;99.90;;;;;;5052352;28;20636;-87
2022/01/29 01:52:17;;;;;;;41.40;22.87;;;5.70;99.90;;;;;;5051984;28;20174;-87
2022/01/29 01:54:43;;;;;;;46.53;24.93;;;5.70;99.90;;;;;;5052376;28;20166;-85
2022/01/29 01:57:09;;;;;;;41.50;22.87;;;5.70;99.90;;;;;;5052399;28;20419;-85
2022/01/29 01:59:34;;;;;;;46.20;26.33;;;5.70;99.90;;;;;;5052357;28;20887;-86
2022/01/29 02:02:01;;;;;;;51.10;28.50;;;5.70;99.90;;;;;;5051927;28;20658;-87
2022/01/29 02:04:26;;;;;;;42.77;23.97;;;5.70;99.90;;;;;;5052242;28;20174;-85
2022/01/29 02:06:53;;;;;;;42.63;25.23;;;5.70;99.90;;;;;;5052156;28;20409;-86
2022/01/29 02:09:24;;;;;;;44.97;24.93;;;5.70;99.90;;;;;;5052297;28;20253;-86
2022/01/29 02:11:54;;;;;;;46.80;25.90;;;5.70;99.90;;;;;;5055060;28;20423;-86
2022/01/29 02:14:23;;;;;;;50.10;28.23;;;5.70;99.90;;;;;;5056200;28;20417;-84
2022/01/29 02:16:49;;;;;;;50.47;27.70;;;5.70;99.90;;;;;;5055757;28;20469;-86
2022/01/29 02:19:15;;;;;;;56.90;27.90;;;5.60;99.90;;;;;;5055940;28;20519;-86
2022/01/29 02:21:40;;;;;;;49.10;25.63;;;5.70;99.90;;;;;;5055752;28;20208;-85
2022/01/29 02:24:06;;;;;;;56.47;28.70;;;5.70;99.90;;;;;;5055733;28;20277;-86
2022/01/29 02:26:32;;;;;;;50.60;25.13;;;5.70;99.90;;;;;;5055874;28;20649;-87
2022/01/29 02:28:57;;;;;;;46.90;26.83;;;5.70;99.90;;;;;;5055383;28;20231;-86
2022/01/29 02:31:23;;;;;;;50.10;27.80;;;5.60;99.90;;;;;;5056017;28;20180;-83
2022/01/29 02:33:48;;;;;;;52.50;28.17;;;5.60;99.90;;;;;;5055698;28;20176;-87
2022/01/29 02:36:14;;;;;;;51.33;26.67;;;5.60;99.90;;;;;;5055592;28;20193;-87
2022/01/29 02:38:40;;;;;;;49.87;25.17;;;5.70;99.90;;;;;;5055899;28;20566;-86
2022/01/29 02:41:06;;;;;;;52.37;28.50;;;5.70;99.90;;;;;;5055874;28;20215;-87
2022/01/29 02:43:46;;;;;;;50.37;26.80;;;5.70;99.90;;;;;;5055594;28;20204;-84
2022/01/29 02:46:29;;;;;;;51.80;26.70;;;5.70;99.90;;;;;;5055514;28;20836;-84
2022/01/29 02:48:58;;;;;;;54.33;27.67;;;5.70;99.90;;;;;;5055488;28;21058;-84
2022/01/29 02:51:24;;;;;;;49.03;25.97;;;5.70;99.90;;;;;;5055000;28;20413;-85
2022/01/29 02:53:50;;;;;;;61.60;30.37;;;5.80;99.90;;;;;;5055164;28;20427;-84
2022/01/29 02:56:16;;;;;;;53.93;28.27;;;5.70;99.90;;;;;;5055193;28;20174;-84
2022/01/29 02:58:41;;;;;;;43.80;23.20;;;5.70;99.90;;;;;;5055264;28;20249;-84
2022/01/29 03:01:07;;;;;;;56.07;27.80;;;5.70;99.90;;;;;;5037313;28;20170;-85
2022/01/29 03:03:33;;;;;;;46.13;25.00;;;5.70;99.90;;;;;;5055105;28;20219;-84
2022/01/29 03:05:59;;;;;;;50.90;28.33;;;5.70;99.90;;;;;;5054662;28;20416;-84
2022/01/29 03:08:24;;;;;;;52.07;25.60;;;5.70;99.90;;;;;;5055022;28;20170;-84
2022/01/29 03:10:50;;;;;;;42.83;24.27;;;5.80;99.90;;;;;;5055181;28;20169;-84
2022/01/29 03:13:16;;;;;;;49.23;26.97;;;5.80;99.90;;;;;;5054998;28;20580;-84
2022/01/29 03:15:42;;;;;;;49.33;26.57;;;5.80;99.90;;;;;;5036860;28;20181;-85
2022/01/29 03:18:08;;;;;;;53.87;25.40;;;5.70;99.90;;;;;;5054701;28;20475;-83
2022/01/29 03:20:34;;;;;;;50.80;26.53;;;5.80;99.90;;;;;;5054558;28;20408;-85
2022/01/29 03:23:00;;;;;;;55.30;25.17;;;5.80;99.90;;;;;;5054299;28;20883;-85
2022/01/29 03:25:26;;;;;;;45.93;24.00;;;5.80;99.90;;;;;;5054637;28;20420;-85
2022/01/29 03:27:52;;;;;;;57.23;26.10;;;5.80;99.90;;;;;;5054313;28;20420;-85
2022/01/29 03:30:17;;;;;;;45.27;25.80;;;5.80;99.90;;;;;;5054694;28;20212;-85
2022/01/29 03:32:43;;;;;;;47.33;24.87;;;5.80;99.90;;;;;;5054608;28;20186;-85
2022/01/29 03:35:09;;;;;;;41.30;24.47;;;5.80;99.90;;;;;;5054270;28;20225;-85
2022/01/29 03:37:34;;;;;;;46.40;21.97;;;5.80;99.90;;;;;;5054541;28;20181;-85
2022/01/29 03:40:03;;;;;;;48.17;22.87;;;5.80;99.90;;;;;;5036582;28;20947;-86
2022/01/29 03:42:37;;;;;;;41.57;21.53;;;5.80;99.90;;;;;;5054304;28;20579;-84
2022/01/29 03:45:06;;;;;;;41.23;21.83;;;5.80;99.90;;;;;;5054502;28;20460;-85
2022/01/29 03:47:31;;;;;;;47.57;23.17;;;5.80;99.90;;;;;;5053601;28;20928;-84
2022/01/29 03:49:57;;;;;;;51.80;25.03;;;5.80;99.90;;;;;;5054129;28;20419;-85
2022/01/29 03:52:22;;;;;;;42.60;22.47;;;5.80;99.90;;;;;;5053847;28;20166;-84
2022/01/29 03:54:48;;;;;;;36.60;20.00;;;5.80;99.90;;;;;;5054166;28;20181;-85
2022/01/29 03:57:13;;;;;;;43.83;23.30;;;5.80;99.90;;;;;;5054101;28;20186;-85
2022/01/29 03:59:39;;;;;;;42.33;22.87;;;5.80;99.90;;;;;;5054171;28;20206;-85
2022/01/29 04:02:04;;;;;;;43.37;23.03;;;5.90;99.90;;;;;;5053886;28;20726;-84
2022/01/29 04:04:30;;;;;;;38.50;20.37;;;5.90;99.90;;;;;;5053916;28;20185;-85
2022/01/29 04:06:59;;;;;;;36.57;18.90;;;5.90;99.90;;;;;;5053226;28;20180;-84
2022/01/29 04:09:25;;;;;;;40.27;20.17;;;5.90;99.90;;;;;;5053918;28;20203;-84
2022/01/29 04:11:50;;;;;;;35.90;18.53;;;5.90;99.90;;;;;;5053806;28;20444;-84
2022/01/29 04:14:18;;;;;;;31.70;18.37;;;5.90;99.90;;;;;;5053802;28;20223;-84
2022/01/29 04:16:44;;;;;;;39.23;19.80;;;5.90;99.90;;;;;;5053579;28;20161;-83
2022/01/29 04:19:10;;;;;;;38.27;17.97;;;5.90;99.90;;;;;;5053673;28;20884;-84
2022/01/29 04:21:36;;;;;;;32.67;18.00;;;5.90;99.90;;;;;;5052954;28;20515;-85
2022/01/29 04:24:01;;;;;;;38.97;21.63;;;6.00;99.90;;;;;;5035751;28;20221;-87
2022/01/29 04:26:33;;;;;;;35.00;19.13;;;5.90;99.90;;;;;;5053769;28;20173;-87
2022/01/29 04:28:58;;;;;;;34.20;17.70;;;5.90;99.90;;;;;;5035849;28;20174;-86
2022/01/29 04:31:24;;;;;;;36.83;18.43;;;5.90;99.90;;;;;;5018772;28;20975;-85
2022/01/29 04:33:49;;;;;;;34.87;17.43;;;6.00;99.90;;;;;;5014923;28;20170;-86
2022/01/29 04:36:15;;;;;;;34.37;18.97;;;6.00;99.90;;;;;;5033132;28;20669;-86
2022/01/29 04:38:40;;;;;;;30.43;17.00;;;6.00;99.90;;;;;;5033554;28;20177;-86
2022/01/29 04:41:06;;;;;;;31.53;16.57;;;6.00;99.90;;;;;;5033462;28;20167;-84
2022/01/29 04:43:33;;;;;;;34.93;16.37;;;6.10;99.90;;;;;;5015694;28;20598;-86
2022/01/29 04:45:59;;;;;;;28.90;17.70;;;6.10;99.90;;;;;;5033276;28;20257;-86
2022/01/29 04:48:25;;;;;;;34.27;18.70;;;6.10;99.90;;;;;;5033268;28;20508;-84
2022/01/29 04:50:50;;;;;;;34.27;16.83;;;6.10;99.90;;;;;;5015265;28;20451;-86
2022/01/29 04:53:16;;;;;;;33.63;17.87;;;6.10;99.90;;;;;;5033261;28;20249;-85
2022/01/29 04:55:42;;;;;;;35.57;18.17;;;6.10;99.90;;;;;;5033082;28;20278;-85
2022/01/29 04:58:07;;;;;;;29.70;16.63;;;6.10;99.90;;;;;;5033187;28;20268;-85
2022/01/29 05:00:35;;;;;;;31.07;17.33;;;6.20;99.90;;;;;;5033040;28;20168;-83
2022/01/29 05:03:12;;;;;;;35.37;17.13;;;6.20;99.90;;;;;;5032814;28;20206;-84
2022/01/29 05:05:39;;;;;;;27.97;15.73;;;6.20;99.90;;;;;;5032726;28;20413;-84
2022/01/29 05:08:05;;;;;;;30.47;16.90;;;6.20;99.90;;;;;;5032812;28;20437;-84
2022/01/29 05:10:31;;;;;;;30.30;17.47;;;6.20;99.90;;;;;;5032837;28;20416;-85
2022/01/29 05:13:09;;;;;;;29.40;17.77;;;6.20;99.90;;;;;;5032802;28;20243;-83
2022/01/29 05:15:43;;;;;;;32.17;16.73;;;6.20;99.90;;;;;;5032886;28;20924;-82
2022/01/29 05:29:07;;;;;;;35.30;19.57;;;6.30;99.90;;;;;;5032875;28;20479;-84
2022/01/29 05:31:33;;;;;;;26.13;15.47;;;6.30;99.90;;;;;;5032555;28;20410;-84
2022/01/29 05:34:00;;;;;;;30.00;17.27;;;6.30;99.90;;;;;;5032511;28;20177;-85
2022/01/29 05:36:25;;;;;;;34.90;17.87;;;6.30;99.90;;;;;;5032257;28;20221;-85
2022/01/29 05:38:51;;;;;;;32.13;16.30;;;6.30;99.90;;;;;;5032538;28;20445;-84
2022/01/29 05:41:17;;;;;;;37.23;19.47;;;7.90;99.90;;;;;;5014885;28;20182;-84
2022/01/29 05:43:43;;;;;;;38.10;19.80;;;6.40;99.90;;;;;;5032334;28;20216;-85
2022/01/29 05:46:10;;;;;;;32.00;18.50;;;6.40;99.90;;;;;;5038723;28;20636;-84
2022/01/29 05:48:36;;;;;;;33.57;19.00;;;6.40;99.90;;;;;;5039289;28;20418;-83
2022/01/29 05:51:01;;;;;;;38.90;21.20;;;6.50;99.90;;;;;;5025899;28;20929;-83
2022/01/29 05:53:26;;;;;;;34.30;19.87;;;6.50;99.90;;;;;;5021346;28;20182;-85
2022/01/29 05:55:52;;;;;;;36.13;20.53;;;6.50;99.90;;;;;;5039028;28;20221;-85
2022/01/29 05:58:17;;;;;;;34.80;19.50;;;6.60;99.90;;;;;;5039178;28;20206;-86
2022/01/29 06:00:43;;;;;;;35.83;20.20;;;6.60;99.90;;;;;;5039057;28;20172;-85
2022/01/29 06:03:10;;;;;;;30.73;17.27;;;6.60;99.90;;;;;;5038834;28;20215;-86
2022/01/29 06:05:36;;;;;;;32.67;18.23;;;6.70;99.90;;;;;;5038631;28;20173;-84
2022/01/29 06:08:02;;;;;;;34.33;20.20;;;6.70;99.90;;;;;;5038801;28;21116;-85
2022/01/29 06:10:28;;;;;;;35.23;19.80;;;6.70;99.90;;;;;;5038925;28;20417;-86
2022/01/29 06:13:15;;;;;;;35.63;19.50;;;6.80;99.90;;;;;;5021181;28;20429;-86
2022/01/29 06:15:46;;;;;;;31.20;17.73;;;6.80;99.90;;;;;;5038966;28;20421;-86
2022/01/29 06:18:17;;;;;;;27.37;15.30;;;6.80;99.90;;;;;;5038717;28;20497;-86
2022/01/29 06:20:47;;;;;;;30.23;17.80;;;6.90;99.90;;;;;;5019680;28;20421;-87
2022/01/29 06:23:14;;;;;;;34.30;17.17;;;6.90;99.90;;;;;;5037900;28;20469;-86
2022/01/29 06:25:40;;;;;;;31.33;17.37;;;6.90;99.90;;;;;;5039160;28;20986;-86
2022/01/29 06:28:06;;;;;;;29.30;16.70;;;6.90;99.90;;;;;;5021275;28;20434;-86
2022/01/29 06:30:31;;;;;;;32.33;18.53;;;7.00;99.90;;;;;;5039106;28;20457;-86
2022/01/29 06:32:57;;;;;;;32.60;17.60;;;7.00;99.90;;;;;;5038521;28;20437;-86
2022/01/29 06:35:22;;;;;;;29.93;16.93;;;7.00;99.90;;;;;;5020919;28;20179;-86
2022/01/29 06:37:48;;;;;;;35.80;18.70;;;7.00;99.90;;;;;;5037822;28;20639;-86
2022/01/29 06:40:14;;;;;;;31.93;19.37;;;7.00;99.90;;;;;;5020577;28;20172;-89
2022/01/29 06:42:40;;;;;;;35.67;18.67;;;7.10;99.90;;;;;;5039190;28;20649;-88
2022/01/29 06:45:06;;;;;;;34.50;19.70;;;7.10;99.90;;;;;;5039308;28;20174;-88
2022/01/29 06:47:32;;;;;;;37.63;18.47;;;7.10;99.90;;;;;;5039129;28;20426;-86
2022/01/29 06:49:57;;;;;;;34.47;20.50;;;7.10;99.90;;;;;;5038783;28;20414;-88
2022/01/29 06:52:23;;;;;;;28.97;16.37;;;7.10;99.90;;;;;;5039171;28;20178;-88
2022/01/29 06:54:49;;;;;;;39.53;21.17;;;7.10;99.90;;;;;;5038984;28;20262;-86
2022/01/29 06:57:16;;;;;;;40.23;19.40;;;7.20;99.90;;;;;;5035763;28;20429;-87
2022/01/29 06:59:41;;;;;;;41.23;20.20;;;7.20;99.90;;;;;;5035762;28;20360;-87
2022/01/29 07:02:07;;;;;;;42.53;19.33;;;7.20;99.90;;;;;;5035464;28;20776;-86
2022/01/29 07:04:33;;;;;;;43.60;21.27;;;7.20;99.90;;;;;;5017518;28;20294;-87
2022/01/29 07:06:58;;;;;;;34.07;19.47;;;7.20;99.90;;;;;;5035467;28;20418;-86
2022/01/29 07:09:23;;;;;;;44.83;21.70;;;7.20;99.90;;;;;;5035269;28;20584;-87
2022/01/29 07:11:55;;;;;;;38.40;18.90;;;7.20;99.90;;;;;;5035441;28;20246;-86
2022/01/29 07:14:21;;;;;;;34.50;19.10;;;7.20;99.90;;;;;;5035552;28;20172;-86
2022/01/29 07:16:46;;;;;;;42.63;20.67;;;7.30;99.90;;;;;;5035351;28;20410;-85
2022/01/29 07:19:12;;;;;;;37.13;19.40;;;7.30;99.90;;;;;;5035328;28;20226;-87
2022/01/29 07:21:37;;;;;;;37.13;18.90;;;7.30;99.90;;;;;;5035024;28;20170;-87
2022/01/29 07:24:04;;;;;;;37.67;20.73;;;7.30;99.90;;;;;;5035209;28;20211;-86
2022/01/29 07:26:29;;;;;;;32.63;19.70;;;7.40;99.90;;;;;;5035162;28;20168;-86
2022/01/29 07:28:55;;;;;;;30.53;18.43;;;7.40;99.90;;;;;;5035075;28;20420;-86
2022/01/29 07:31:21;;;;;;;33.33;16.20;;;7.40;99.90;;;;;;5035194;28;20168;-87
2022/01/29 07:33:46;;;;;;;29.37;16.17;;;7.40;99.90;;;;;;5035085;28;20646;-86
2022/01/29 07:36:12;;;;;;;31.50;16.93;;;7.40;99.90;;;;;;5017008;28;20427;-85
2022/01/29 07:38:37;;;;;;;30.87;16.13;;;7.40;99.90;;;;;;5034996;28;20764;-86
2022/01/29 07:41:03;;;;;;;27.53;15.83;;;7.40;99.90;;;;;;5035034;28;20194;-86
2022/01/29 07:43:28;;;;;;;27.60;14.93;;;7.40;99.90;;;;;;5034756;28;20228;-85
2022/01/29 07:45:54;;;;;;;37.73;19.37;;;7.40;99.90;;;;;;5034737;28;20685;-86
2022/01/29 07:48:20;;;;;;;28.43;14.67;;;7.50;99.90;;;;;;5016921;28;20690;-86
2022/01/29 07:50:45;;;;;;;31.17;14.70;;;7.50;99.90;;;;;;5034418;28;20255;-86
2022/01/29 07:53:11;;;;;;;31.77;13.73;;;7.50;99.90;;;;;;5034669;28;20206;-87
2022/01/29 07:55:36;;;;;;;24.07;13.63;;;7.50;99.90;;;;;;5034676;28;20636;-82
2022/01/29 07:58:03;;;;;;;32.47;15.63;;;7.50;99.90;;;;;;5034503;28;20175;-85
2022/01/29 08:00:29;;;;;;;29.13;16.33;;;7.50;99.90;;;;;;5034500;28;20218;-84
2022/01/29 08:02:54;;;;;;;23.73;14.13;;;7.50;99.90;;;;;;5034316;28;20551;-84
2022/01/29 08:05:20;;;;;;;28.00;12.80;;;7.60;99.90;;;;;;5034131;28;20408;-85
2022/01/29 08:07:46;;;;;;;26.13;12.20;;;7.50;99.90;;;;;;5033398;28;20182;-86
2022/01/29 08:10:11;;;;;;;17.30;10.40;;;7.50;99.90;;;;;;5033986;28;20171;-86
2022/01/29 08:12:37;;;;;;;21.00;12.13;;;7.60;99.90;;;;;;5034312;28;20196;-85
2022/01/29 08:15:04;;;;;;;26.07;13.23;;;7.60;99.90;;;;;;5034132;28;20188;-84
2022/01/29 08:17:30;;;;;;;19.63;10.77;;;7.60;99.90;;;;;;5033747;28;20216;-86
2022/01/29 08:19:57;;;;;;;20.03;10.43;;;7.60;99.90;;;;;;5033694;28;20926;-85
2022/01/29 08:22:23;;;;;;;21.43;11.53;;;7.60;99.90;;;;;;5033766;28;20227;-87
2022/01/29 08:24:49;;;;;;;22.90;12.00;;;7.60;99.90;;;;;;5033910;28;20457;-86
2022/01/29 08:27:14;;;;;;;20.70;9.90;;;7.70;99.90;;;;;;5033983;28;20172;-86
2022/01/29 08:29:39;;;;;;;20.27;10.00;;;7.70;99.90;;;;;;5016045;28;20574;-87
2022/01/29 08:32:05;;;;;;;16.50;11.10;;;7.70;99.90;;;;;;5016066;28;20182;-83
2022/01/29 08:34:31;;;;;;;19.53;10.07;;;7.70;99.90;;;;;;5033527;28;20796;-87
2022/01/29 08:37:02;;;;;;;16.60;8.83;;;7.80;99.90;;;;;;5033840;28;20167;-87
2022/01/29 08:39:28;;;;;;;14.90;9.17;;;7.80;99.90;;;;;;5033597;28;20194;-87
2022/01/29 08:41:54;;;;;;;11.30;7.50;;;7.80;99.90;;;;;;5034020;28;20423;-85
2022/01/29 08:44:20;;;;;;;15.67;7.97;;;7.80;99.90;;;;;;5033493;28;20675;-87
2022/01/29 08:46:45;;;;;;;16.67;9.13;;;7.80;99.90;;;;;;5033578;28;20422;-86
2022/01/29 08:49:11;;;;;;;18.00;9.40;;;7.80;99.90;;;;;;5033135;28;20256;-84
2022/01/29 08:51:37;;;;;;;12.30;7.27;;;7.80;99.90;;;;;;5015661;28;20182;-84
2022/01/29 08:54:03;;;;;;;14.23;7.90;;;7.80;99.90;;;;;;5033447;28;20562;-85
2022/01/29 08:56:29;;;;;;;21.37;7.17;;;7.80;99.90;;;;;;5048334;28;20772;-87
2022/01/29 08:58:54;;;;;;;14.23;8.07;;;7.80;99.90;;;;;;5053241;28;20478;-83
2022/01/29 09:01:20;;;;;;;15.67;8.17;;;7.80;99.90;;;;;;5035327;28;20202;-86
2022/01/29 09:03:45;;;;;;;15.37;8.40;;;7.80;99.90;;;;;;5053026;28;20365;-86
2022/01/29 09:06:11;;;;;;;13.27;6.53;;;7.90;99.90;;;;;;5034817;28;20642;-84
2022/01/29 09:08:39;;;;;;;13.73;7.23;;;7.90;99.90;;;;;;5053090;28;20177;-86
2022/01/29 09:11:04;;;;;;;11.07;6.47;;;7.90;99.90;;;;;;5053001;28;20168;-85
2022/01/29 09:13:30;;;;;;;12.00;6.37;;;8.00;99.90;;;;;;5052981;28;20470;-85
2022/01/29 09:15:56;;;;;;;14.27;7.80;;;8.00;99.90;;;;;;5052927;28;20627;-86
2022/01/29 09:18:22;;;;;;;11.40;7.50;;;8.00;99.90;;;;;;5052763;28;20619;-85
2022/01/29 09:20:48;;;;;;;10.97;6.13;;;8.10;99.90;;;;;;5029101;28;20417;-85
2022/01/29 09:23:13;;;;;;;15.10;7.33;;;8.10;99.90;;;;;;5049185;28;20572;-84
2022/01/29 09:25:39;;;;;;;15.77;6.60;;;8.10;99.90;;;;;;5049609;28;20180;-84
2022/01/29 09:28:06;;;;;;;11.03;6.47;;;8.10;99.90;;;;;;5020297;28;20185;-84
2022/01/29 09:30:33;;;;;;;13.50;5.50;;;8.20;99.90;;;;;;5042663;28;20915;-84
2022/01/29 09:32:59;;;;;;;8.20;4.87;;;8.20;99.90;;;;;;5033707;28;20414;-89
2022/01/29 09:35:26;;;;;;;13.10;6.23;;;8.20;99.90;;;;;;5033016;28;20410;-87
2022/01/29 09:37:52;;;;;;;11.10;6.37;;;8.30;99.90;;;;;;5015584;28;20419;-87
2022/01/29 09:40:18;;;;;;;11.50;7.33;;;8.30;99.90;;;;;;5033084;28;20880;-88
2022/01/29 09:42:47;;;;;;;7.33;5.00;;;8.30;99.90;;;;;;5032932;28;20479;-88
2022/01/29 09:45:14;;;;;;;9.37;5.17;;;8.30;99.90;;;;;;5033254;28;20166;-86
2022/01/29 09:47:44;;;;;;;11.03;5.80;;;8.40;99.90;;;;;;5032835;28;20499;-90
2022/01/29 09:50:12;;;;;;;7.67;5.70;;;8.30;99.90;;;;;;5032556;28;20549;-89
2022/01/29 09:52:38;;;;;;;8.70;4.93;;;8.40;99.90;;;;;;5033042;28;20415;-84
2022/01/29 09:55:07;;;;;;;8.57;5.03;;;8.50;99.90;;;;;;5032997;28;20958;-88
2022/01/29 09:57:33;;;;;;;10.13;4.70;;;8.50;99.90;;;;;;5034256;28;20415;-87
2022/01/29 09:59:58;;;;;;;7.63;4.80;;;8.50;99.90;;;;;;5033317;28;20415;-86
2022/01/29 10:02:24;;;;;;;9.90;4.80;;;8.50;99.90;;;;;;5032485;28;20970;-85
2022/01/29 10:04:55;;;;;;;8.70;5.30;;;8.50;99.90;;;;;;5014664;28;20322;-87
2022/01/29 10:07:26;;;;;;;9.10;4.93;;;8.50;99.90;;;;;;5032548;28;20159;-86
2022/01/29 10:09:53;;;;;;;11.03;6.57;;;8.50;99.90;;;;;;5032509;28;20514;-86
2022/01/29 10:12:27;;;;;;;10.13;5.53;;;8.50;99.90;;;;;;5032316;28;20415;-85
2022/01/29 10:14:58;;;;;;;7.57;4.77;;;8.50;99.90;;;;;;5032489;28;20406;-85
2022/01/29 10:17:50;;;;;;;7.87;5.53;;;8.50;99.90;;;;;;5032306;28;20508;-80
2022/01/29 10:20:19;;;;;;;10.13;5.23;;;8.60;99.90;;;;;;5032053;28;20424;-83
2022/01/29 10:22:46;;;;;;;8.40;5.73;;;8.60;99.90;;;;;;5032353;28;20455;-82
2022/01/29 10:25:17;;;;;;;9.33;5.20;;;8.60;99.90;;;;;;5014984;28;20408;-81
2022/01/29 10:28:16;;;;;;;6.90;3.97;;;8.60;99.90;;;;;;5030342;28;20441;-80
2022/01/29 10:30:51;;;;;;;7.70;4.60;;;8.60;99.90;;;;;;5037878;28;20948;-81
2022/01/29 10:33:25;;;;;;;6.47;3.67;;;8.70;99.90;;;;;;5055572;28;20475;-82
2022/01/29 10:35:56;;;;;;;7.07;3.97;;;8.60;99.90;;;;;;5055103;28;20416;-81
2022/01/29 10:38:44;;;;;;;6.70;3.80;;;8.60;99.90;;;;;;5055642;28;20440;-86
2022/01/29 10:41:22;;;;;;;6.30;3.40;;;8.70;99.90;;;;;;5048593;28;20490;-84
2022/01/29 10:43:58;;;;;;;10.53;4.57;;;8.70;99.90;;;;;;5035050;28;20482;-82
2022/01/29 10:46:31;;;;;;;6.70;4.20;;;8.60;99.90;;;;;;5037212;28;20401;-83
2022/01/29 10:48:58;;;;;;;12.60;3.57;;;8.70;99.90;;;;;;5054260;28;20425;-83
2022/01/29 10:51:24;;;;;;;6.97;4.00;;;8.70;99.90;;;;;;5036305;28;20498;-82
2022/01/29 10:53:53;;;;;;;6.00;3.70;;;8.60;99.90;;;;;;5054202;28;20943;-83
2022/01/29 10:56:18;;;;;;;6.67;3.50;;;8.60;99.90;;;;;;5036783;28;20812;-83
2022/01/29 10:58:47;;;;;;;6.63;3.97;;;8.60;99.90;;;;;;5054125;28;20518;-84
2022/01/29 11:01:24;;;;;;;7.03;4.00;;;8.70;99.90;;;;;;5052227;28;21013;-83
2022/01/29 11:03:53;;;;;;;6.30;3.90;;;8.70;99.90;;;;;;5026390;28;20474;-82
2022/01/29 11:06:26;;;;;;;7.33;4.27;;;8.70;99.90;;;;;;5049133;28;20415;-81
2022/01/29 11:08:52;;;;;;;6.13;3.50;;;8.70;99.90;;;;;;5022952;28;20472;-83
2022/01/29 11:11:17;;;;;;;6.13;3.67;;;8.70;99.90;;;;;;5042489;28;20418;-84
2022/01/29 11:13:45;;;;;;;6.17;3.70;;;8.70;99.90;;;;;;5053849;28;20253;-82
2022/01/29 11:16:12;;;;;;;6.27;4.70;;;8.70;99.90;;;;;;5035359;28;20632;-84
2022/01/29 11:18:38;;;;;;;7.83;4.50;;;8.70;99.90;;;;;;5036070;28;20606;-85
2022/01/29 11:21:04;;;;;;;4.43;3.23;;;8.80;99.90;;;;;;5051722;28;20905;-83
2022/01/29 11:23:30;;;;;;;10.47;3.67;;;8.80;99.90;;;;;;5033595;28;20223;-86
2022/01/29 11:25:58;;;;;;;6.33;2.70;;;8.80;99.90;;;;;;5034121;28;20688;-86
2022/01/29 11:28:26;;;;;;;6.33;4.20;;;8.80;99.90;;;;;;5022164;28;20936;-85
2022/01/29 11:31:13;;;;;;;7.67;4.73;;;8.80;99.90;;;;;;5043023;28;20422;-85
2022/01/29 11:33:57;;;;;;;6.83;4.10;;;8.80;99.90;;;;;;5040230;28;20410;-86
2022/01/29 11:36:45;;;;;;;6.93;4.50;;;8.90;99.90;;;;;;5045039;28;20930;-87
2022/01/29 11:39:29;;;;;;;8.80;3.77;;;8.90;99.90;;;;;;5033932;28;20953;-86
2022/01/29 11:42:13;;;;;;;9.13;4.40;;;8.80;99.90;;;;;;5016581;28;20497;-85
2022/01/29 11:44:40;;;;;;;8.23;5.07;;;8.80;99.90;;;;;;5034456;28;20488;-86
2022/01/29 11:47:24;;;;;;;8.20;4.20;;;8.90;99.90;;;;;;5034636;28;20412;-85
2022/01/29 11:50:10;;;;;;;8.67;6.20;;;8.90;99.90;;;;;;5034333;28;20512;-87
2022/01/29 11:52:56;;;;;;;7.50;4.87;;;8.90;99.90;;;;;;5033735;28;20510;-82
2022/01/29 11:55:34;;;;;;;10.77;4.57;;;8.90;99.90;;;;;;5034114;28;20432;-84
2022/01/29 11:58:17;;;;;;;9.90;5.53;;;8.90;99.90;;;;;;5039028;28;21299;-82
2022/01/29 12:00:51;;;;;;;7.37;5.03;;;8.90;99.90;;;;;;5048335;28;20426;-84
2022/01/29 12:03:36;;;;;;;13.07;7.13;;;9.00;99.90;;;;;;5060116;28;20993;-84
2022/01/29 12:08:42;;;;;;;9.50;5.93;;;9.00;99.90;;;;;;5051040;28;20461;-80
2022/01/29 12:11:14;;;;;;;9.10;6.83;;;9.10;99.90;;;;;;5053704;28;20413;-80
2022/01/29 12:13:40;;;;;;;9.00;4.80;;;9.10;99.90;;;;;;5053805;28;20556;-84
2022/01/29 12:16:09;;;;;;;5.30;3.77;;;9.10;99.90;;;;;;5053810;28;20500;-83
2022/01/29 12:18:36;;;;;;;6.50;3.90;;;9.20;99.90;;;;;;5053812;28;20506;-82
2022/01/29 12:21:06;;;;;;;6.70;4.10;;;9.20;99.90;;;;;;5053548;28;20475;-82
2022/01/29 12:23:48;;;;;;;6.93;4.80;;;9.20;99.90;;;;;;5052031;28;20481;-82
2022/01/29 12:26:19;;;;;;;7.90;3.93;;;9.20;99.90;;;;;;5053177;28;20414;-83
2022/01/29 12:28:50;;;;;;;7.27;4.80;;;9.20;99.90;;;;;;5053335;28;20437;-83
2022/01/29 12:31:18;;;;;;;9.40;3.70;;;9.20;99.90;;;;;;5053436;28;20423;-81
2022/01/29 12:33:44;;;;;;;6.40;3.00;;;9.20;99.90;;;;;;5035143;28;20437;-84
2022/01/29 12:36:09;;;;;;;9.33;3.90;;;9.20;99.90;;;;;;5053372;28;20419;-84
2022/01/29 12:38:41;;;;;;;8.00;3.20;;;9.10;99.90;;;;;;5053197;28;20268;-83
2022/01/29 12:41:13;;;;;;;4.43;3.33;;;9.10;99.90;;;;;;5053084;28;20169;-84
2022/01/29 12:44:02;;;;;;;9.57;4.70;;;9.20;99.90;;;;;;5053188;28;20470;-84
2022/01/29 12:46:29;;;;;;;5.80;3.00;;;9.20;99.90;;;;;;5053245;28;20418;-84
2022/01/29 12:49:11;;;;;;;6.17;3.63;;;9.20;99.90;;;;;;5052745;28;20415;-83
2022/01/29 12:51:53;;;;;;;5.37;3.57;;;9.20;99.90;;;;;;5053177;28;20414;-84
2022/01/29 12:54:19;;;;;;;5.37;3.20;;;9.10;99.90;;;;;;5052326;28;20430;-83
2022/01/29 12:56:45;;;;;;;9.10;4.00;;;9.10;99.90;;;;;;5035077;28;20463;-85
2022/01/29 12:59:12;;;;;;;8.20;4.37;;;9.20;99.90;;;;;;5053014;28;20409;-84
2022/01/29 13:01:40;;;;;;;5.67;3.73;;;9.20;99.90;;;;;;5052893;28;20414;-85